Time;durP1;ratioP1;P1;durP2;ratioP2;P2;SDS_P1;SDS_P2;PMS_P1;PMS_P2;Temp;Humidity;BMP_temperature;BMP_pressure;BME280_temperature;BME280_humidity;BME280_pressure;Samples;Min_cycle;Max_cycle;Signal;HPM_P1;HPM_P2
2021/12/24 00:00:52;;;;;;;12.68;7.72;;;5.20;92.50;;;;;;5018872;28;20029;-80
2021/12/24 00:03:17;;;;;;;17.08;7.55;;;5.20;92.40;;;;;;4996974;28;20067;-80
2021/12/24 00:05:43;;;;;;;15.23;6.72;;;5.30;92.50;;;;;;5003331;28;20598;-80
2021/12/24 00:08:09;;;;;;;12.30;6.95;;;5.30;92.50;;;;;;5021836;28;20064;-80
2021/12/24 00:10:35;;;;;;;14.65;6.93;;;5.30;92.50;;;;;;5007719;28;22699;-80
2021/12/24 00:13:05;;;;;;;13.82;7.63;;;5.40;92.60;;;;;;5012493;28;20508;-80
2021/12/24 00:36:50;;;;;;;9.52;6.55;;;5.60;92.70;;;;;;5024244;28;20568;-80
2021/12/24 00:39:16;;;;;;;10.57;6.03;;;5.60;92.80;;;;;;5038023;28;20029;-81
2021/12/24 00:41:42;;;;;;;10.02;6.47;;;5.70;92.90;;;;;;5006110;28;20610;-81
2021/12/24 00:44:07;;;;;;;9.27;5.90;;;5.70;92.90;;;;;;5021765;28;20717;-82
2021/12/24 00:46:34;;;;;;;11.45;6.15;;;5.70;92.90;;;;;;5039909;28;20037;-81
2021/12/24 00:49:01;;;;;;;10.35;6.10;;;5.80;93.00;;;;;;5006179;28;20045;-80
2021/12/24 00:56:52;;;;;;;12.18;6.53;;;6.00;92.90;;;;;;5045013;28;20090;-80
2021/12/24 00:59:17;;;;;;;10.18;5.70;;;6.10;92.90;;;;;;5002315;28;20421;-79
2021/12/24 01:01:43;;;;;;;10.68;6.07;;;6.20;92.90;;;;;;5025593;28;20091;-82
2021/12/24 01:04:08;;;;;;;11.95;6.85;;;6.20;92.90;;;;;;5020137;28;20123;-80
2021/12/24 01:06:34;;;;;;;9.93;5.78;;;6.30;92.90;;;;;;5031937;28;20103;-80
2021/12/24 01:08:59;;;;;;;12.15;6.60;;;6.30;92.90;;;;;;5017727;28;20026;-80
2021/12/24 01:11:27;;;;;;;11.60;6.60;;;6.40;92.90;;;;;;5039375;28;20041;-80
2021/12/24 01:13:53;;;;;;;9.82;5.57;;;6.40;92.90;;;;;;5022774;28;20045;-80
2021/12/24 01:17:01;;;;;;;8.50;5.60;;;6.50;93.00;;;;;;4992600;28;20037;-81
2021/12/24 01:19:16;;;;;;;11.82;6.68;;;6.50;93.00;;;;;;5024736;28;20040;-81
2021/12/24 01:24:36;;;;;;;9.75;5.55;;;6.60;93.00;;;;;;5023584;28;19959;-80
2021/12/24 01:27:15;;;;;;;8.35;5.53;;;6.60;92.80;;;;;;4995026;28;20478;-80
2021/12/24 01:29:58;;;;;;;9.90;6.00;;;6.70;92.90;;;;;;5012063;28;20033;-80
2021/12/24 01:38:10;;;;;;;9.82;5.95;;;6.80;92.90;;;;;;5010163;28;20124;-80
2021/12/24 01:43:16;;;;;;;9.52;5.63;;;6.90;92.90;;;;;;5025142;28;20041;-81
2021/12/24 01:45:42;;;;;;;9.70;5.72;;;6.90;92.90;;;;;;4995239;28;20105;-79
2021/12/24 01:48:08;;;;;;;11.38;5.43;;;7.00;93.00;;;;;;5028633;28;20037;-79
2021/12/24 01:50:35;;;;;;;10.68;5.45;;;7.00;93.00;;;;;;5024123;28;20037;-80
2021/12/24 01:53:05;;;;;;;8.95;5.55;;;7.10;93.00;;;;;;5013718;28;20040;-79
2021/12/24 01:55:31;;;;;;;11.20;5.43;;;7.00;93.00;;;;;;5028281;28;20040;-79
2021/12/24 01:57:56;;;;;;;9.63;5.47;;;7.10;93.00;;;;;;4987096;28;20530;-80
2021/12/24 02:00:43;;;;;;;8.02;5.35;;;7.10;93.00;;;;;;5021737;28;20048;-81
2021/12/24 02:03:09;;;;;;;8.68;5.53;;;7.20;93.10;;;;;;5028004;28;20148;-81
2021/12/24 02:05:35;;;;;;;7.47;5.05;;;7.20;93.00;;;;;;5018843;28;20077;-80
2021/12/24 02:08:02;;;;;;;8.77;5.45;;;7.20;93.00;;;;;;5003757;28;20053;-80
2021/12/24 02:10:27;;;;;;;8.57;5.63;;;7.20;93.00;;;;;;5015261;28;20046;-79
2021/12/24 02:12:54;;;;;;;8.38;5.07;;;7.30;93.00;;;;;;5041883;28;20120;-81
2021/12/24 02:15:42;;;;;;;7.95;5.50;;;7.30;93.00;;;;;;5016320;28;20036;-80
2021/12/24 02:28:46;;;;;;;9.13;5.75;;;7.40;93.00;;;;;;5017211;28;20085;-80
2021/12/24 02:31:14;;;;;;;5.88;4.90;;;7.40;92.90;;;;;;5000356;28;20427;-80
2021/12/24 02:33:40;;;;;;;8.27;4.78;;;7.50;93.00;;;;;;5004127;28;20064;-80
2021/12/24 02:36:06;;;;;;;6.57;4.97;;;7.50;93.00;;;;;;5003409;28;20499;-80
2021/12/24 02:38:32;;;;;;;7.50;4.88;;;7.50;92.90;;;;;;5020216;28;20044;-81
2021/12/24 02:40:57;;;;;;;6.90;4.85;;;7.50;92.90;;;;;;5008694;28;20677;-80
2021/12/24 02:43:24;;;;;;;7.05;4.63;;;7.50;92.90;;;;;;5019993;28;20121;-81
2021/12/24 02:45:53;;;;;;;8.65;4.82;;;7.50;93.00;;;;;;5006957;28;20048;-80
2021/12/24 02:56:27;;;;;;;6.40;4.82;;;7.50;93.00;;;;;;5023861;28;20039;-81
2021/12/24 02:58:53;;;;;;;7.25;4.85;;;7.50;93.00;;;;;;5011089;28;20474;-79
2021/12/24 03:01:21;;;;;;;10.15;4.82;;;7.50;93.00;;;;;;5006604;28;20041;-80
2021/12/24 03:03:48;;;;;;;9.95;4.47;;;7.60;93.00;;;;;;5033781;28;20037;-80
2021/12/24 03:06:25;;;;;;;7.43;5.07;;;7.50;93.00;;;;;;5007205;28;20025;-80
2021/12/24 03:08:51;;;;;;;6.00;4.68;;;7.50;93.10;;;;;;5009005;28;20948;-81
2021/12/24 03:11:17;;;;;;;5.75;4.07;;;7.50;93.00;;;;;;4996279;28;20048;-81
2021/12/24 03:13:42;;;;;;;6.43;4.38;;;7.50;93.00;;;;;;5021868;28;20036;-81
2021/12/24 03:16:08;;;;;;;8.27;4.72;;;7.50;93.00;;;;;;5021373;28;20063;-80
2021/12/24 03:18:36;;;;;;;8.48;5.32;;;7.50;93.10;;;;;;5019288;28;20039;-81
2021/12/24 03:24:34;;;;;;;7.95;4.70;;;7.50;93.10;;;;;;5025467;28;20108;-80
2021/12/24 03:26:32;;;;;;;;;;;7.50;93.10;;;;;;5003493;28;20175;-80
2021/12/24 03:28:57;;;;;;;7.03;4.50;;;7.50;93.00;;;;;;5038128;28;19920;-80
2021/12/24 03:31:23;;;;;;;9.90;4.75;;;7.60;93.00;;;;;;5037522;28;20555;-80
2021/12/24 03:33:53;;;;;;;6.38;4.53;;;7.60;93.00;;;;;;5006181;28;20033;-79
2021/12/24 03:36:18;;;;;;;7.68;4.93;;;7.60;93.10;;;;;;5023202;28;20033;-82
2021/12/24 03:38:44;;;;;;;6.47;4.80;;;7.60;93.10;;;;;;4995248;28;20384;-80
2021/12/24 03:41:09;;;;;;;9.23;4.95;;;7.60;93.10;;;;;;5000954;28;20082;-80
2021/12/24 03:43:35;;;;;;;6.45;5.13;;;7.60;93.10;;;;;;5027248;28;20528;-79
2021/12/24 03:46:05;;;;;;;10.43;5.60;;;7.60;93.10;;;;;;5013834;28;20099;-79
2021/12/24 03:48:54;;;;;;;6.55;4.72;;;7.60;93.10;;;;;;5021275;28;20040;-80
2021/12/24 03:51:30;;;;;;;6.72;4.88;;;7.60;93.10;;;;;;5036096;28;20098;-81
2021/12/24 03:56:41;;;;;;;6.95;4.93;;;7.60;93.10;;;;;;5016373;28;20035;-80
2021/12/24 03:59:06;;;;;;;8.50;5.10;;;7.60;93.20;;;;;;5035263;28;20028;-80
2021/12/24 04:01:32;;;;;;;8.75;5.80;;;7.60;93.20;;;;;;5052249;28;20417;-80
2021/12/24 04:03:58;;;;;;;7.53;5.03;;;7.60;93.20;;;;;;5007359;28;20071;-80
2021/12/24 04:06:23;;;;;;;5.85;4.78;;;7.70;93.20;;;;;;5009101;28;20427;-80
2021/12/24 04:08:49;;;;;;;7.93;5.25;;;7.70;93.20;;;;;;5022643;28;20057;-80
2021/12/24 04:11:14;;;;;;;7.38;5.03;;;7.70;93.20;;;;;;5036266;28;20034;-80
2021/12/24 04:13:40;;;;;;;8.15;5.03;;;7.70;93.10;;;;;;5015266;28;20053;-80
2021/12/24 04:16:06;;;;;;;7.88;4.65;;;7.70;93.10;;;;;;5037875;28;20040;-80
2021/12/24 04:26:26;;;;;;;7.43;4.95;;;7.80;93.10;;;;;;5024453;28;20044;-80
2021/12/24 04:28:52;;;;;;;7.35;4.05;;;7.80;93.00;;;;;;5022587;28;20032;-80
2021/12/24 04:31:21;;;;;;;6.45;4.47;;;7.90;93.00;;;;;;4989221;28;20041;-80
2021/12/24 04:33:49;;;;;;;6.15;4.20;;;7.90;93.00;;;;;;5005156;28;20033;-79
2021/12/24 05:03:08;;;;;;;7.68;4.70;;;8.00;92.80;;;;;;5037324;28;20124;-80
2021/12/24 05:10:43;;;;;;;8.07;4.60;;;8.00;92.90;;;;;;5021389;28;20025;-80
2021/12/24 05:13:09;;;;;;;9.02;5.05;;;8.00;92.80;;;;;;5003450;28;20041;-80
2021/12/24 05:15:40;;;;;;;8.10;4.60;;;8.00;92.90;;;;;;5004380;28;20075;-80
2021/12/24 05:23:19;;;;;;;11.45;5.57;;;8.00;92.80;;;;;;5025874;28;20616;-80
2021/12/24 05:25:46;;;;;;;8.23;4.95;;;8.10;92.80;;;;;;5021043;28;20041;-80
2021/12/24 05:28:12;;;;;;;7.88;4.88;;;8.10;92.80;;;;;;5003749;28;20037;-81
2021/12/24 05:30:38;;;;;;;7.72;5.22;;;8.10;92.80;;;;;;5036223;28;20041;-80
2021/12/24 05:33:04;;;;;;;8.48;5.80;;;8.10;92.80;;;;;;5010061;28;20144;-79
2021/12/24 05:35:29;;;;;;;9.75;6.53;;;8.10;92.80;;;;;;5040419;28;20442;-80
2021/12/24 05:37:55;;;;;;;7.88;5.22;;;8.10;92.80;;;;;;5040695;28;20039;-80
2021/12/24 05:40:20;;;;;;;8.25;5.07;;;8.10;92.80;;;;;;5015608;28;20082;-80
2021/12/24 05:42:46;;;;;;;8.13;5.45;;;8.10;92.80;;;;;;5006459;28;20036;-79
2021/12/24 05:45:11;;;;;;;7.63;5.25;;;8.10;92.70;;;;;;5012462;28;20044;-80
2021/12/24 05:47:37;;;;;;;9.20;5.32;;;8.10;92.80;;;;;;5025993;28;20025;-80
2021/12/24 05:50:03;;;;;;;9.95;5.47;;;8.10;92.70;;;;;;5008735;28;20037;-80
2021/12/24 05:52:28;;;;;;;7.40;5.28;;;8.10;92.70;;;;;;5041721;28;20097;-79
2021/12/24 05:54:54;;;;;;;8.05;5.03;;;8.10;92.80;;;;;;5024052;28;20091;-80
2021/12/24 05:57:19;;;;;;;9.07;5.65;;;8.10;92.80;;;;;;5015355;28;20041;-80
2021/12/24 05:59:45;;;;;;;9.98;5.18;;;8.10;92.80;;;;;;5025597;28;20064;-79
2021/12/24 06:02:10;;;;;;;8.93;5.63;;;8.10;92.70;;;;;;5006672;28;20041;-79
2021/12/24 06:04:36;;;;;;;8.32;5.25;;;8.10;92.80;;;;;;5014945;28;20048;-81
2021/12/24 06:07:06;;;;;;;9.52;5.68;;;8.10;92.80;;;;;;5021221;28;20045;-83
2021/12/24 06:09:31;;;;;;;7.70;5.45;;;8.10;92.80;;;;;;5022279;28;20807;-80
2021/12/24 06:11:57;;;;;;;9.63;5.30;;;8.10;92.80;;;;;;4985512;28;20040;-80
2021/12/24 06:14:22;;;;;;;7.47;5.05;;;8.10;92.70;;;;;;5025233;28;20453;-80
2021/12/24 06:16:58;;;;;;;8.23;5.22;;;8.10;92.70;;;;;;5051307;28;20598;-82
2021/12/24 06:19:26;;;;;;;10.30;5.13;;;8.10;92.70;;;;;;5009234;28;20044;-80
2021/12/24 06:21:55;;;;;;;11.95;7.03;;;8.10;92.70;;;;;;5010752;28;20410;-81
2021/12/24 06:24:21;;;;;;;6.53;4.57;;;8.10;92.70;;;;;;5004259;28;20055;-79
2021/12/24 06:26:47;;;;;;;8.00;5.60;;;8.10;92.70;;;;;;5011792;28;20029;-79
2021/12/24 06:29:12;;;;;;;8.05;5.95;;;8.00;92.70;;;;;;5023452;28;20040;-81
2021/12/24 06:31:38;;;;;;;7.50;5.45;;;8.10;92.80;;;;;;5031706;28;20044;-80
2021/12/24 06:34:04;;;;;;;10.07;5.85;;;8.10;92.80;;;;;;5048697;28;20032;-81
2021/12/24 06:36:34;;;;;;;10.35;5.65;;;8.10;92.80;;;;;;5029460;28;20161;-81
2021/12/24 06:38:59;;;;;;;9.00;5.57;;;8.10;92.80;;;;;;4990662;28;20515;-79
2021/12/24 06:41:25;;;;;;;12.38;6.68;;;8.00;92.80;;;;;;5021107;28;20045;-81
2021/12/24 06:43:50;;;;;;;7.88;5.05;;;8.10;92.80;;;;;;4996362;28;20029;-81
2021/12/24 06:46:16;;;;;;;7.55;5.43;;;8.10;92.80;;;;;;4991586;28;20056;-82
2021/12/24 06:48:41;;;;;;;7.78;4.85;;;8.10;92.80;;;;;;5024302;28;20546;-81
2021/12/24 06:51:07;;;;;;;7.63;5.25;;;8.00;92.80;;;;;;5005928;28;20737;-81
2021/12/24 06:53:33;;;;;;;9.80;5.97;;;8.00;92.80;;;;;;5024234;28;20381;-81
2021/12/24 06:55:58;;;;;;;10.25;5.95;;;8.00;92.80;;;;;;5038227;28;20172;-81
2021/12/24 06:58:24;;;;;;;7.72;5.40;;;8.10;92.80;;;;;;5008009;28;20467;-80
2021/12/24 07:00:49;;;;;;;8.85;6.13;;;8.00;92.80;;;;;;5021629;28;20028;-80
2021/12/24 07:03:15;;;;;;;9.13;5.47;;;8.10;92.80;;;;;;5038012;28;20053;-81
2021/12/24 07:05:40;;;;;;;9.93;6.90;;;8.10;92.80;;;;;;5041466;28;20037;-79
2021/12/24 07:08:06;;;;;;;11.18;6.55;;;8.10;92.80;;;;;;5022615;28;20067;-80
2021/12/24 07:10:31;;;;;;;8.40;5.82;;;8.10;92.80;;;;;;5041905;28;20696;-78
2021/12/24 07:12:57;;;;;;;9.18;5.82;;;8.10;92.80;;;;;;5040479;28;20728;-80
2021/12/24 07:15:22;;;;;;;10.05;6.43;;;8.00;92.80;;;;;;5023234;28;20044;-81
2021/12/24 07:17:48;;;;;;;9.05;6.15;;;8.10;92.80;;;;;;5020469;28;20036;-80
2021/12/24 07:20:14;;;;;;;10.18;6.22;;;8.10;92.80;;;;;;5039616;28;20037;-80
2021/12/24 07:22:39;;;;;;;11.85;6.47;;;8.10;92.80;;;;;;5039149;28;20345;-81
2021/12/24 07:25:06;;;;;;;11.63;6.32;;;8.10;92.80;;;;;;5038315;28;20040;-81
2021/12/24 07:27:32;;;;;;;9.63;5.78;;;8.10;92.80;;;;;;5021846;28;20056;-81
2021/12/24 07:29:58;;;;;;;11.95;6.72;;;8.10;92.80;;;;;;5019034;28;20103;-79
2021/12/24 07:32:24;;;;;;;9.27;6.00;;;8.00;92.80;;;;;;5005927;28;20531;-80
2021/12/24 07:34:49;;;;;;;9.25;5.35;;;8.10;92.80;;;;;;5014175;28;20131;-80
2021/12/24 07:37:15;;;;;;;8.15;5.00;;;8.10;93.20;;;;;;5006619;28;20043;-80
2021/12/24 07:39:40;;;;;;;10.93;5.55;;;8.00;92.80;;;;;;5021953;28;20044;-81
2021/12/24 07:42:06;;;;;;;9.40;5.25;;;8.00;92.80;;;;;;5039964;28;20037;-81
2021/12/24 07:44:34;;;;;;;11.60;5.35;;;8.10;92.80;;;;;;5004240;28;20049;-80
2021/12/24 07:47:02;;;;;;;7.45;4.78;;;8.00;92.80;;;;;;5019293;28;20415;-80
2021/12/24 07:54:24;;;;;;;7.82;5.32;;;8.00;92.80;;;;;;5006485;28;20112;-81
2021/12/24 07:56:50;;;;;;;8.13;5.38;;;8.00;92.80;;;;;;4978710;28;20033;-82
2021/12/24 07:59:16;;;;;;;9.57;5.90;;;8.00;92.80;;;;;;5034992;28;20062;-82
2021/12/24 08:01:44;;;;;;;8.68;5.82;;;7.90;92.70;;;;;;5050983;28;20045;-81
2021/12/24 08:04:10;;;;;;;12.73;7.82;;;7.90;93.10;;;;;;5040168;28;20074;-81
2021/12/24 08:06:35;;;;;;;11.27;7.65;;;7.90;92.80;;;;;;5003845;28;20118;-81
2021/12/24 08:09:01;;;;;;;8.38;6.40;;;7.90;92.70;;;;;;5005571;28;20505;-82
2021/12/24 08:11:26;;;;;;;8.35;6.00;;;7.90;92.70;;;;;;5020100;28;20543;-80
2021/12/24 08:13:52;;;;;;;7.43;4.50;;;7.90;92.70;;;;;;5014135;28;20665;-80
2021/12/24 08:16:19;;;;;;;11.45;5.53;;;7.90;92.70;;;;;;5006321;28;20041;-82
2021/12/24 08:18:45;;;;;;;10.65;5.30;;;7.90;92.70;;;;;;5020028;28;20037;-80
2021/12/24 08:21:10;;;;;;;7.45;4.65;;;8.00;92.70;;;;;;5030268;28;20036;-81
2021/12/24 08:23:36;;;;;;;6.47;4.80;;;7.90;92.70;;;;;;5023891;28;20380;-80
2021/12/24 08:26:01;;;;;;;8.27;4.90;;;8.00;92.70;;;;;;5021515;28;20479;-81
2021/12/24 08:28:27;;;;;;;6.15;4.30;;;8.00;92.70;;;;;;5044578;28;20047;-81
2021/12/24 08:30:54;;;;;;;6.55;4.28;;;8.00;92.70;;;;;;5028012;28;20043;-82
2021/12/24 08:33:20;;;;;;;5.10;3.75;;;8.00;92.60;;;;;;5018284;28;20124;-82
2021/12/24 08:35:46;;;;;;;5.93;3.88;;;8.00;92.60;;;;;;5014291;28;20090;-81
2021/12/24 08:38:11;;;;;;;5.75;3.38;;;8.00;92.60;;;;;;5038583;28;20052;-82
2021/12/24 08:40:37;;;;;;;5.43;3.90;;;8.00;92.50;;;;;;5021696;28;20041;-82
2021/12/24 08:43:02;;;;;;;6.18;4.30;;;8.00;92.50;;;;;;5019790;28;20458;-81
2021/12/24 08:45:28;;;;;;;5.00;3.40;;;8.00;92.50;;;;;;5020295;28;20735;-82
2021/12/24 08:47:54;;;;;;;7.43;4.95;;;8.00;92.50;;;;;;5012708;28;20029;-81
2021/12/24 08:50:19;;;;;;;7.43;3.60;;;8.00;92.40;;;;;;4991893;28;20512;-82
2021/12/24 08:52:46;;;;;;;4.50;3.38;;;8.00;92.40;;;;;;5030287;28;20037;-82
2021/12/24 08:55:13;;;;;;;4.32;3.28;;;8.00;92.40;;;;;;5020172;28;20052;-81
2021/12/24 08:57:39;;;;;;;6.75;3.70;;;8.00;92.30;;;;;;5001038;28;20032;-81
2021/12/24 09:00:05;;;;;;;5.80;3.45;;;8.00;92.30;;;;;;5023162;28;20068;-81
2021/12/24 09:02:31;;;;;;;4.60;3.28;;;8.00;92.30;;;;;;5011179;28;20053;-81
2021/12/24 09:04:56;;;;;;;6.95;3.63;;;8.00;92.30;;;;;;5005311;28;20052;-81
2021/12/24 09:07:22;;;;;;;5.35;3.67;;;8.00;92.20;;;;;;4990346;28;20036;-81
2021/12/24 09:09:48;;;;;;;5.43;3.35;;;8.00;92.20;;;;;;5021731;28;20056;-80
2021/12/24 09:12:13;;;;;;;7.35;5.20;;;8.10;92.60;;;;;;5009015;28;20040;-80
2021/12/24 09:14:39;;;;;;;5.93;4.20;;;8.00;92.10;;;;;;5020122;28;20021;-80
2021/12/24 09:17:04;;;;;;;6.78;3.72;;;8.10;92.10;;;;;;5001625;28;20025;-81
2021/12/24 09:19:31;;;;;;;5.40;3.28;;;8.10;92.10;;;;;;5022999;28;20492;-80
2021/12/24 09:21:58;;;;;;;10.95;4.80;;;8.10;92.10;;;;;;5049061;28;20036;-80
2021/12/24 09:24:27;;;;;;;18.98;9.20;;;8.10;92.10;;;;;;5015479;28;20040;-81
2021/12/24 09:26:57;;;;;;;6.30;3.92;;;8.10;92.00;;;;;;5042531;28;20028;-74
2021/12/24 09:29:23;;;;;;;6.22;4.28;;;8.20;92.00;;;;;;5038217;28;20039;-81
2021/12/24 09:31:48;;;;;;;4.78;3.10;;;8.10;92.00;;;;;;5040269;28;20033;-81
2021/12/24 09:34:14;;;;;;;30.85;18.30;;;8.20;92.40;;;;;;5023724;28;20033;-80
2021/12/24 09:36:39;;;;;;;9.15;6.35;;;8.20;92.00;;;;;;5022460;28;20040;-81
2021/12/24 09:39:06;;;;;;;8.25;3.60;;;8.20;92.00;;;;;;5036154;28;20033;-81
2021/12/24 09:41:31;;;;;;;5.65;3.55;;;8.30;92.00;;;;;;5008126;28;20033;-79
2021/12/24 09:43:59;;;;;;;6.35;2.90;;;8.20;91.90;;;;;;5014768;28;20021;-80
2021/12/24 09:46:28;;;;;;;25.73;20.48;;;8.30;91.90;;;;;;5008213;28;20454;-80
2021/12/24 09:48:54;;;;;;;8.07;4.45;;;8.30;91.80;;;;;;5002362;28;20042;-80
2021/12/24 09:51:21;;;;;;;7.63;3.78;;;8.30;91.80;;;;;;5008511;28;20033;-74
2021/12/24 09:53:46;;;;;;;6.65;3.47;;;8.30;91.70;;;;;;5013939;28;20059;-81
2021/12/24 09:56:12;;;;;;;7.57;3.42;;;8.40;91.80;;;;;;5026393;28;20559;-79
2021/12/24 09:58:38;;;;;;;6.75;4.32;;;8.30;91.70;;;;;;5024387;28;20033;-81
2021/12/24 10:01:03;;;;;;;21.55;11.15;;;8.30;91.80;;;;;;5007029;28;20113;-79
2021/12/24 10:03:33;;;;;;;15.75;7.25;;;8.40;91.70;;;;;;5019494;28;20041;-80
2021/12/24 10:05:59;;;;;;;11.40;5.93;;;8.40;91.70;;;;;;5029058;28;20115;-80
2021/12/24 10:08:25;;;;;;;11.45;5.55;;;8.40;91.70;;;;;;5004171;28;20033;-81
2021/12/24 10:10:54;;;;;;;124.88;56.95;;;8.50;91.70;;;;;;5003164;28;20041;-80
2021/12/24 10:13:43;;;;;;;19.50;10.02;;;8.50;91.70;;;;;;5007662;28;20112;-80
2021/12/24 10:16:27;;;;;;;69.05;30.02;;;8.50;91.60;;;;;;5005423;28;20065;-82
2021/12/24 10:18:53;;;;;;;61.08;24.75;;;8.50;92.00;;;;;;5021101;28;20040;-81
2021/12/24 10:21:27;;;;;;;21.58;9.55;;;8.50;91.60;;;;;;5044224;28;20037;-80
2021/12/24 10:23:54;;;;;;;15.18;6.82;;;8.50;91.60;;;;;;5011076;28;20092;-81
2021/12/24 10:26:21;;;;;;;28.77;11.48;;;8.50;91.50;;;;;;5006101;28;20095;-80
2021/12/24 10:28:49;;;;;;;26.27;10.38;;;8.60;91.50;;;;;;5028852;28;20044;-80
2021/12/24 10:31:32;;;;;;;7.78;3.58;;;8.60;91.50;;;;;;5022806;28;20060;-83
2021/12/24 10:34:15;;;;;;;16.27;8.32;;;8.60;91.80;;;;;;5014383;28;20361;-81
2021/12/24 10:36:54;;;;;;;10.90;4.70;;;8.70;91.40;;;;;;5041346;28;20499;-82
2021/12/24 10:39:21;;;;;;;8.63;3.63;;;8.70;91.40;;;;;;5019162;28;20056;-80
2021/12/24 10:41:48;;;;;;;13.45;6.25;;;8.70;91.40;;;;;;5000553;28;20030;-80
2021/12/24 10:44:27;;;;;;;11.18;5.28;;;8.70;91.30;;;;;;5030602;28;20048;-81
2021/12/24 10:47:06;;;;;;;5.43;3.10;;;8.70;91.30;;;;;;5008432;28;20067;-82
2021/12/24 10:52:16;;;;;;;10.43;2.92;;;8.80;91.60;;;;;;5018435;28;20049;-81
2021/12/24 10:54:55;;;;;;;11.48;6.18;;;8.80;91.20;;;;;;5041712;28;20059;-82
2021/12/24 10:57:23;;;;;;;8.68;5.07;;;8.80;91.10;;;;;;5002574;28;20040;-84
2021/12/24 10:59:51;;;;;;;6.75;4.63;;;8.80;91.10;;;;;;5020070;28;20037;-83
2021/12/24 11:02:17;;;;;;;5.72;3.60;;;8.80;91.10;;;;;;5016234;28;20112;-83
2021/12/24 11:04:43;;;;;;;4.13;2.85;;;8.90;91.10;;;;;;4993556;28;20060;-82
2021/12/24 11:07:36;;;;;;;7.75;3.50;;;8.90;91.10;;;;;;5022175;28;21067;-82
2021/12/24 11:10:12;;;;;;;6.38;3.38;;;8.90;91.00;;;;;;5037320;28;20755;-83
2021/12/24 11:12:42;;;;;;;5.30;3.40;;;8.90;91.00;;;;;;5005733;28;20094;-83
2021/12/24 11:15:24;;;;;;;5.88;2.55;;;8.90;91.00;;;;;;5026494;28;20036;-82
2021/12/24 11:17:51;;;;;;;7.15;2.42;;;8.90;90.90;;;;;;5032950;28;20039;-83
2021/12/24 11:20:17;;;;;;;4.80;2.45;;;8.90;91.30;;;;;;5013634;28;20670;-83
2021/12/24 11:22:56;;;;;;;5.38;2.58;;;8.90;90.90;;;;;;5056673;28;20153;-83
2021/12/24 11:25:23;;;;;;;9.00;4.43;;;8.90;90.80;;;;;;5019214;28;20040;-83
2021/12/24 11:27:48;;;;;;;4.15;2.22;;;9.00;90.80;;;;;;5009973;28;20087;-84
2021/12/24 11:30:15;;;;;;;6.15;3.10;;;9.00;90.80;;;;;;5023844;28;20545;-84
2021/12/24 11:32:40;;;;;;;8.13;4.07;;;9.00;90.80;;;;;;5021698;28;20497;-83
2021/12/24 11:35:06;;;;;;;7.47;4.75;;;9.00;90.80;;;;;;5021333;28;20530;-84
2021/12/24 11:37:31;;;;;;;5.65;2.80;;;9.00;90.80;;;;;;5045224;28;20040;-84
2021/12/24 11:39:57;;;;;;;7.57;3.60;;;9.00;90.70;;;;;;5006835;28;20407;-83
2021/12/24 11:42:24;;;;;;;5.35;2.80;;;9.00;90.70;;;;;;5029290;28;20032;-84
2021/12/24 11:44:50;;;;;;;4.90;3.00;;;9.00;90.70;;;;;;4998776;28;20050;-84
2021/12/24 11:47:15;;;;;;;7.72;3.28;;;9.00;90.70;;;;;;5012324;28;20056;-83
2021/12/24 11:49:41;;;;;;;5.78;2.42;;;9.00;90.60;;;;;;5014257;28;20179;-84
2021/12/24 11:52:07;;;;;;;7.90;2.50;;;9.00;90.60;;;;;;5001459;28;20079;-84
2021/12/24 11:54:32;;;;;;;6.90;3.10;;;9.00;90.50;;;;;;5007238;28;20124;-84
2021/12/24 11:56:58;;;;;;;6.93;3.20;;;9.00;90.50;;;;;;5015698;28;20037;-83
2021/12/24 11:59:40;;;;;;;5.68;2.90;;;8.90;90.40;;;;;;5034140;28;20719;-83
2021/12/24 12:02:06;;;;;;;5.38;2.75;;;9.00;90.40;;;;;;5032162;28;20041;-76
2021/12/24 12:04:32;;;;;;;5.22;2.45;;;8.90;90.40;;;;;;5034252;28;20049;-83
2021/12/24 12:07:17;;;;;;;4.85;2.55;;;8.90;90.40;;;;;;5018976;28;20102;-83
2021/12/24 12:09:44;;;;;;;6.15;2.50;;;8.90;90.20;;;;;;5037617;28;20177;-84
2021/12/24 12:12:13;;;;;;;5.85;3.22;;;8.90;90.30;;;;;;5004942;28;20036;-83
2021/12/24 12:14:39;;;;;;;14.10;6.80;;;8.90;90.30;;;;;;5033990;28;20584;-84
2021/12/24 12:17:07;;;;;;;13.35;6.45;;;9.00;90.20;;;;;;4987995;28;20125;-84
2021/12/24 12:19:47;;;;;;;13.48;6.43;;;9.00;90.20;;;;;;5008277;28;20041;-84
2021/12/24 12:22:29;;;;;;;17.00;7.30;;;8.90;90.20;;;;;;5022070;28;20159;-83
2021/12/24 12:24:58;;;;;;;7.68;3.50;;;9.00;90.10;;;;;;4999668;28;20033;-84
2021/12/24 12:27:53;;;;;;;10.75;5.05;;;9.00;90.10;;;;;;5039845;28;20811;-83
2021/12/24 12:30:21;;;;;;;8.05;4.07;;;9.00;90.00;;;;;;5037768;28;20529;-84
2021/12/24 12:32:47;;;;;;;8.30;4.15;;;9.00;90.10;;;;;;5021154;28;20527;-84
2021/12/24 12:35:13;;;;;;;14.35;6.68;;;9.00;90.10;;;;;;5020040;28;20037;-83
2021/12/24 12:37:42;;;;;;;7.13;4.15;;;9.00;90.10;;;;;;5010538;28;20032;-83
2021/12/24 12:40:13;;;;;;;8.40;4.10;;;9.00;90.10;;;;;;5022790;28;20128;-83
2021/12/24 12:42:55;;;;;;;8.15;3.75;;;9.00;90.10;;;;;;5025327;28;20148;-83
2021/12/24 12:45:42;;;;;;;4.63;3.00;;;9.00;90.00;;;;;;5025814;28;20040;-84
2021/12/24 12:48:10;;;;;;;6.47;3.28;;;8.90;90.00;;;;;;5020036;28;20036;-82
2021/12/24 12:50:36;;;;;;;5.43;2.88;;;8.90;90.00;;;;;;4987913;28;20073;-82
2021/12/24 12:53:35;;;;;;;5.57;3.15;;;9.00;90.10;;;;;;5015102;28;20037;-82
2021/12/24 12:56:20;;;;;;;6.22;3.88;;;9.00;90.10;;;;;;5004938;28;20040;-81
2021/12/24 12:59:11;;;;;;;7.10;4.63;;;8.90;90.00;;;;;;5028575;28;20032;-81
2021/12/24 13:01:50;;;;;;;15.10;6.63;;;8.90;90.00;;;;;;5003346;28;20057;-82
2021/12/24 13:04:16;;;;;;;6.18;3.53;;;8.90;90.00;;;;;;5012386;28;20372;-81
2021/12/24 13:06:42;;;;;;;7.32;4.10;;;8.90;90.10;;;;;;5006565;28;20541;-81
2021/12/24 13:09:10;;;;;;;7.78;5.03;;;8.90;90.10;;;;;;5039389;28;20129;-81
2021/12/24 13:11:37;;;;;;;5.65;3.97;;;8.90;90.10;;;;;;4979634;28;20033;-82
2021/12/24 13:14:02;;;;;;;5.43;3.03;;;8.90;90.10;;;;;;5039568;28;20036;-81
2021/12/24 13:16:37;;;;;;;6.03;2.50;;;8.90;90.10;;;;;;5017647;28;20079;-81
2021/12/24 13:19:26;;;;;;;5.22;3.10;;;8.90;90.10;;;;;;5015567;28;20032;-81
2021/12/24 13:24:39;;;;;;;4.47;2.60;;;8.90;90.10;;;;;;5037078;28;20561;-81
2021/12/24 13:27:05;;;;;;;3.92;2.65;;;8.90;90.10;;;;;;5011495;28;20495;-80
2021/12/24 13:29:31;;;;;;;4.13;2.65;;;8.90;90.10;;;;;;5029880;28;20033;-81
2021/12/24 13:31:56;;;;;;;6.50;2.88;;;8.90;90.10;;;;;;5017374;28;20687;-80
2021/12/24 13:34:23;;;;;;;4.78;2.92;;;8.90;90.10;;;;;;4992147;28;20041;-81
2021/12/24 13:36:48;;;;;;;4.40;2.88;;;8.90;90.10;;;;;;5002505;28;20060;-81
2021/12/24 13:39:16;;;;;;;4.07;3.45;;;8.90;90.10;;;;;;5019611;28;20108;-81
2021/12/24 13:41:42;;;;;;;6.22;2.80;;;8.90;90.00;;;;;;5001182;28;20037;-81
2021/12/24 13:44:19;;;;;;;5.95;3.80;;;8.90;90.00;;;;;;5017061;28;20110;-80
2021/12/24 13:46:50;;;;;;;2.97;2.67;;;8.90;90.10;;;;;;5015170;28;20116;-80
2021/12/24 13:49:34;;;;;;;13.70;7.40;;;8.90;90.10;;;;;;5020249;28;20022;-80
2021/12/24 13:54:44;;;;;;;6.05;3.45;;;8.90;90.10;;;;;;5016663;28;20063;-81
2021/12/24 13:57:09;;;;;;;4.75;3.38;;;8.90;90.10;;;;;;5018877;28;20461;-81
2021/12/24 13:59:35;;;;;;;5.35;3.65;;;8.90;90.10;;;;;;5007148;28;20033;-81
2021/12/24 14:02:01;;;;;;;5.45;2.70;;;8.90;90.10;;;;;;5003410;28;20032;-81
2021/12/24 14:04:27;;;;;;;4.65;3.35;;;8.90;90.10;;;;;;5039238;28;20041;-81
2021/12/24 14:06:59;;;;;;;8.27;4.28;;;8.90;90.00;;;;;;4996224;28;20041;-81
2021/12/24 14:09:32;;;;;;;5.32;3.65;;;8.90;90.00;;;;;;5012426;28;20044;-82
2021/12/24 14:11:58;;;;;;;6.18;3.70;;;8.90;90.10;;;;;;5036499;28;20040;-80
2021/12/24 14:14:30;;;;;;;9.48;5.15;;;8.90;90.10;;;;;;4994416;28;20114;-81
2021/12/24 14:20:09;;;;;;;5.97;3.17;;;8.80;90.10;;;;;;5023470;28;20624;-81
2021/12/24 14:22:34;;;;;;;4.40;2.50;;;8.80;90.00;;;;;;5023712;28;20286;-81
2021/12/24 14:25:01;;;;;;;4.03;2.55;;;8.80;90.00;;;;;;5005107;28;20048;-81
2021/12/24 14:27:28;;;;;;;2.67;2.30;;;8.80;90.00;;;;;;5033181;28;20029;-80
2021/12/24 14:30:15;;;;;;;4.32;2.85;;;8.80;90.10;;;;;;4997480;28;20044;-81
2021/12/24 14:32:43;;;;;;;5.78;2.85;;;8.80;90.00;;;;;;5020238;28;20519;-81
2021/12/24 14:35:21;;;;;;;3.22;2.50;;;8.80;90.10;;;;;;5012044;28;20048;-81
2021/12/24 14:38:17;;;;;;;4.35;2.92;;;8.80;90.10;;;;;;5033396;28;20064;-73
2021/12/24 14:40:43;;;;;;;7.20;4.13;;;8.80;90.10;;;;;;5016820;28;20032;-73
2021/12/24 14:43:10;;;;;;;5.25;3.08;;;8.80;90.10;;;;;;5020233;28;20381;-81
2021/12/24 14:45:40;;;;;;;4.53;2.25;;;8.80;90.10;;;;;;4991050;28;20040;-81
2021/12/24 14:48:16;;;;;;;4.30;3.30;;;8.80;90.10;;;;;;4989709;28;20079;-80
2021/12/24 14:50:53;;;;;;;4.30;3.30;;;8.80;90.10;;;;;;5023181;28;20884;-81
2021/12/24 14:53:31;;;;;;;5.25;3.28;;;8.80;90.10;;;;;;5022576;28;20515;-80
2021/12/24 14:56:04;;;;;;;7.80;3.47;;;8.70;90.40;;;;;;5030999;28;20108;-80
2021/12/24 14:58:45;;;;;;;5.25;2.08;;;8.70;90.00;;;;;;5019496;28;20047;-76
2021/12/24 15:01:10;;;;;;;8.40;3.80;;;8.70;90.00;;;;;;5041106;28;20552;-79
2021/12/24 15:03:40;;;;;;;3.40;2.17;;;8.70;90.00;;;;;;5037930;28;20124;-80
2021/12/24 15:06:27;;;;;;;3.03;2.15;;;8.70;90.00;;;;;;5021305;28;20047;-79